createdAt,value
2023-05-16T00:00:52.808Z,100529.16
2023-05-16T00:03:20.589Z,100532.81
2023-05-16T00:05:50.347Z,100531.86
2023-05-16T00:08:17.636Z,100533.41
2023-05-16T00:10:44.506Z,100533.41
2023-05-16T00:13:13.444Z,100530.55
2023-05-16T00:15:40.628Z,100535.70
2023-05-16T00:18:08.414Z,100535.55
2023-05-16T00:20:37.330Z,100534.35
2023-05-16T00:23:04.256Z,100531.98
2023-05-16T00:25:31.447Z,100534.11
2023-05-16T00:27:58.406Z,100535.10
2023-05-16T00:30:25.528Z,100534.38
2023-05-16T00:32:55.503Z,100532.46
2023-05-16T00:35:23.759Z,100535.88
2023-05-16T00:37:50.768Z,100540.51
2023-05-16T00:40:18.259Z,100539.86
2023-05-16T00:42:48.128Z,100544.44
2023-05-16T00:45:15.000Z,100544.57
2023-05-16T00:47:41.941Z,100546.23
2023-05-16T00:50:09.577Z,100544.98
2023-05-16T00:52:37.473Z,100543.08
2023-05-16T00:55:05.366Z,100542.09
2023-05-16T00:57:33.056Z,100539.91
2023-05-16T00:59:59.964Z,100532.59
2023-05-16T01:02:28.592Z,100540.25
2023-05-16T01:04:56.303Z,100537.86
2023-05-16T01:07:23.383Z,100534.06
2023-05-16T01:09:50.924Z,100531.27
2023-05-16T01:12:21.238Z,100533.41
2023-05-16T01:14:56.793Z,100530.88
2023-05-16T01:17:38.925Z,100535.69
2023-05-16T01:20:15.124Z,100526.63
2023-05-16T01:23:13.250Z,100524.98
2023-05-16T01:26:11.406Z,100521.50
2023-05-16T01:28:39.601Z,100524.13
2023-05-16T01:31:06.420Z,100526.30
2023-05-16T01:33:33.630Z,100525.94
2023-05-16T01:36:26.090Z,100524.61
2023-05-16T01:39:11.933Z,100526.23
2023-05-16T01:41:38.698Z,100525.27
2023-05-16T01:44:10.213Z,100524.27
2023-05-16T01:46:38.663Z,100523.63
2023-05-16T01:49:35.306Z,100525.29
2023-05-16T01:52:08.063Z,100525.96
2023-05-16T01:54:36.874Z,100523.93
2023-05-16T01:57:04.254Z,100522.91
2023-05-16T01:59:31.878Z,100518.67
2023-05-16T02:01:58.884Z,100515.91
2023-05-16T02:04:25.892Z,100515.06
2023-05-16T02:06:52.701Z,100515.27
2023-05-16T02:09:19.646Z,100514.75
2023-05-16T02:11:46.730Z,100514.88
2023-05-16T02:14:13.701Z,100508.70
2023-05-16T02:16:40.639Z,100509.17
2023-05-16T02:19:07.439Z,100509.02
2023-05-16T02:21:35.107Z,100506.80
2023-05-16T02:24:01.895Z,100507.00
2023-05-16T02:26:28.996Z,100506.95
2023-05-16T02:28:55.832Z,100506.39
2023-05-16T02:31:30.110Z,100505.35
2023-05-16T02:33:58.169Z,100504.63
2023-05-16T02:36:25.133Z,100504.81
2023-05-16T02:38:52.326Z,100505.60
2023-05-16T02:41:22.857Z,100509.00
2023-05-16T02:43:49.682Z,100513.13
2023-05-16T02:46:24.567Z,100512.98
2023-05-16T02:48:51.602Z,100513.45
2023-05-16T02:51:20.371Z,100509.62
2023-05-16T02:53:47.315Z,100513.22
2023-05-16T02:56:14.607Z,100515.23
2023-05-16T02:58:41.857Z,100515.48
2023-05-16T03:01:09.603Z,100514.88
2023-05-16T03:03:37.250Z,100515.78
2023-05-16T03:06:04.197Z,100514.77
2023-05-16T03:08:33.321Z,100514.48
2023-05-16T03:11:00.371Z,100514.43
2023-05-16T03:13:30.509Z,100511.10
2023-05-16T03:15:59.213Z,100506.55
2023-05-16T03:18:26.202Z,100505.83
2023-05-16T03:20:53.106Z,100509.05
2023-05-16T03:23:20.710Z,100508.33
2023-05-16T03:25:49.096Z,100508.25
2023-05-16T03:28:18.098Z,100507.67
2023-05-16T03:30:45.248Z,100506.75
2023-05-16T03:33:12.207Z,100506.48
2023-05-16T03:35:39.018Z,100503.27
2023-05-16T03:38:05.995Z,100501.14
2023-05-16T03:40:33.104Z,100501.43
2023-05-16T03:43:00.037Z,100504.38
2023-05-16T03:45:27.226Z,100504.08
2023-05-16T03:47:54.344Z,100501.23
2023-05-16T03:50:21.455Z,100504.44
2023-05-16T03:52:48.513Z,100505.20
2023-05-16T03:55:17.561Z,100509.30
2023-05-16T03:57:44.684Z,100511.08
2023-05-16T04:00:12.238Z,100514.61
2023-05-16T04:02:43.479Z,100517.55
2023-05-16T04:05:11.058Z,100518.10
2023-05-16T04:07:40.482Z,100521.88
2023-05-16T04:10:09.368Z,100529.80
2023-05-16T04:12:36.493Z,100531.91
2023-05-16T04:15:05.136Z,100537.77
2023-05-16T04:17:33.254Z,100543.14
2023-05-16T04:20:00.637Z,100545.35
2023-05-16T04:22:27.470Z,100550.84
2023-05-16T04:24:54.513Z,100551.66
2023-05-16T04:27:21.361Z,100554.58
2023-05-16T04:29:48.135Z,100556.20
2023-05-16T04:32:17.066Z,100556.04
2023-05-16T04:34:46.120Z,100555.57
2023-05-16T04:37:13.040Z,100553.92
2023-05-16T04:39:40.503Z,100558.54
2023-05-16T04:42:10.179Z,100562.02
2023-05-16T04:44:37.400Z,100560.89
2023-05-16T04:47:04.413Z,100561.04
2023-05-16T04:49:31.250Z,100557.25
2023-05-16T04:51:58.641Z,100559.08
2023-05-16T04:54:26.004Z,100557.63
2023-05-16T04:56:52.772Z,100558.09
2023-05-16T04:59:20.204Z,100559.02
2023-05-16T05:01:47.086Z,100552.30
2023-05-16T05:04:13.895Z,100553.17
2023-05-16T05:06:40.778Z,100552.78
2023-05-16T05:09:07.619Z,100550.98
2023-05-16T05:11:35.136Z,100550.58
2023-05-16T05:14:03.249Z,100553.17
2023-05-16T05:16:30.583Z,100553.33
2023-05-16T05:18:57.858Z,100557.84
2023-05-16T05:21:24.947Z,100551.92
2023-05-16T05:23:51.870Z,100553.09
2023-05-16T05:26:18.671Z,100557.98
2023-05-16T05:28:53.966Z,100563.75
2023-05-16T05:31:24.276Z,100564.84
2023-05-16T05:33:51.218Z,100562.35
2023-05-16T05:36:17.965Z,100563.33
2023-05-16T05:38:45.376Z,100564.27
2023-05-16T05:41:12.465Z,100565.16
2023-05-16T05:43:39.359Z,100566.57
2023-05-16T05:46:06.855Z,100564.61
2023-05-16T05:48:33.751Z,100568.61
2023-05-16T05:51:00.623Z,100570.23
2023-05-16T05:53:27.504Z,100573.45
2023-05-16T05:55:54.289Z,100577.86
2023-05-16T05:58:21.249Z,100581.17
2023-05-16T06:00:48.344Z,100578.69
2023-05-16T06:03:16.080Z,100581.27
2023-05-16T06:05:43.430Z,100590.70
2023-05-16T06:08:10.757Z,100598.14
2023-05-16T06:10:37.727Z,100606.14
2023-05-16T06:13:04.717Z,100605.89
2023-05-16T06:15:31.621Z,100604.42
2023-05-16T06:17:58.905Z,100602.65
2023-05-16T06:20:26.035Z,100602.39
2023-05-16T06:22:52.986Z,100600.92
2023-05-16T06:25:20.086Z,100601.74
2023-05-16T06:27:46.918Z,100604.48
2023-05-16T06:30:13.873Z,100603.44
2023-05-16T06:32:41.027Z,100594.97
2023-05-16T06:35:09.192Z,100596.14
2023-05-16T06:37:36.435Z,100589.31
2023-05-16T06:40:04.624Z,100580.09
2023-05-16T06:42:31.912Z,100571.83
2023-05-16T06:44:59.532Z,100566.89
2023-05-16T06:47:26.497Z,100561.71
2023-05-16T06:49:53.368Z,100557.11
2023-05-16T06:52:20.931Z,100554.00
2023-05-16T06:54:47.781Z,100558.50
2023-05-16T06:57:14.889Z,100559.35
2023-05-16T06:59:42.655Z,100556.82
2023-05-16T07:02:09.564Z,100555.92
2023-05-16T07:04:37.498Z,100559.13
2023-05-16T07:07:07.199Z,100554.41
2023-05-16T07:09:34.741Z,100550.83
2023-05-16T07:12:01.575Z,100554.54
2023-05-16T07:14:28.883Z,100562.91
2023-05-16T07:16:55.866Z,100570.77
2023-05-16T07:19:28.377Z,100574.02
2023-05-16T07:21:56.083Z,100572.67
2023-05-16T07:24:23.197Z,100573.86
2023-05-16T07:26:50.706Z,100569.52
2023-05-16T07:29:18.147Z,100559.66
2023-05-16T07:31:45.495Z,100556.08
2023-05-16T07:34:12.536Z,100556.38
2023-05-16T07:36:42.388Z,100553.81
2023-05-16T07:39:09.845Z,100550.73
2023-05-16T07:41:37.037Z,100558.15
2023-05-16T07:44:03.953Z,100560.15
2023-05-16T07:46:31.355Z,100559.23
2023-05-16T07:48:58.235Z,100560.05
2023-05-16T07:51:25.260Z,100559.20
2023-05-16T07:53:52.130Z,100562.42
2023-05-16T07:56:19.351Z,100559.92
2023-05-16T07:58:48.400Z,100565.08
2023-05-16T08:01:15.493Z,100567.22
2023-05-16T08:03:42.498Z,100569.80
2023-05-16T08:06:10.194Z,100572.66
2023-05-16T08:08:37.701Z,100575.60
2023-05-16T08:11:05.253Z,100577.48
2023-05-16T08:13:35.593Z,100578.71
2023-05-16T08:16:02.602Z,100586.27
2023-05-16T08:18:30.385Z,100586.75
2023-05-16T08:20:57.422Z,100587.04
2023-05-16T08:23:24.421Z,100579.42
2023-05-16T08:25:51.362Z,100587.02
2023-05-16T08:28:22.035Z,100592.50
2023-05-16T08:30:49.358Z,100597.55
2023-05-16T08:33:16.702Z,100595.96
2023-05-16T08:35:43.835Z,100585.73
2023-05-16T08:38:10.902Z,100586.17
2023-05-16T08:40:39.538Z,100592.64
2023-05-16T08:43:06.772Z,100590.09
2023-05-16T08:45:35.296Z,100590.65
2023-05-16T08:48:03.339Z,100592.09
2023-05-16T08:50:31.391Z,100592.37
2023-05-16T08:53:06.848Z,100588.75
2023-05-16T08:55:35.498Z,100587.15
2023-05-16T08:58:03.181Z,100585.48
2023-05-16T09:00:31.291Z,100584.17
2023-05-16T09:02:58.295Z,100579.62
2023-05-16T09:05:25.599Z,100576.48
2023-05-16T09:07:53.455Z,100578.88
2023-05-16T09:10:20.728Z,100577.58
2023-05-16T09:12:47.680Z,100574.51
2023-05-16T09:15:16.830Z,100574.77
2023-05-16T09:17:45.922Z,100572.10
2023-05-16T09:20:17.272Z,100569.77
2023-05-16T09:22:52.251Z,100565.73
2023-05-16T09:25:29.547Z,100565.68
2023-05-16T09:27:58.973Z,100568.19
2023-05-16T09:30:34.284Z,100571.00
2023-05-16T09:33:01.968Z,100573.76
2023-05-16T09:37:59.348Z,100579.65
2023-05-16T09:40:26.643Z,100577.36
2023-05-16T09:43:05.150Z,100574.23
2023-05-16T09:45:33.657Z,100574.86
2023-05-16T09:48:04.388Z,100572.53
2023-05-16T09:50:36.128Z,100576.38
2023-05-16T09:53:03.522Z,100575.52
2023-05-16T09:55:30.888Z,100570.28
2023-05-16T09:57:57.960Z,100577.33
2023-05-16T10:00:32.903Z,100580.65
2023-05-16T10:03:03.482Z,100580.67
2023-05-16T10:05:32.370Z,100581.09
2023-05-16T10:07:59.672Z,100580.45
2023-05-16T10:10:26.662Z,100579.83
2023-05-16T10:12:53.778Z,100579.02
2023-05-16T10:15:21.635Z,100576.88
2023-05-16T10:17:52.023Z,100575.02
2023-05-16T10:20:18.953Z,100579.80
2023-05-16T10:22:46.188Z,100580.91
2023-05-16T10:25:29.729Z,100578.86
2023-05-16T10:27:57.919Z,100575.91
2023-05-16T10:30:25.046Z,100571.58
2023-05-16T10:32:52.341Z,100569.23
2023-05-16T10:35:20.740Z,100559.25
2023-05-16T10:37:48.667Z,100563.83
2023-05-16T10:40:16.365Z,100565.38
2023-05-16T10:43:04.419Z,100568.94
2023-05-16T10:45:32.267Z,100570.73
2023-05-16T10:48:01.508Z,100574.21
2023-05-16T10:50:41.693Z,100567.63
2023-05-16T10:53:32.115Z,100566.46
2023-05-16T10:55:59.190Z,100570.47
2023-05-16T10:58:38.580Z,100573.80
2023-05-16T11:01:29.606Z,100574.52
2023-05-16T11:03:57.177Z,100576.16
2023-05-16T11:06:27.243Z,100568.45
2023-05-16T11:09:07.298Z,100566.16
2023-05-16T11:12:09.013Z,100563.44
2023-05-16T11:14:38.572Z,100561.29
2023-05-16T11:17:20.265Z,100556.45
2023-05-16T11:19:59.284Z,100557.73
2023-05-16T11:22:28.596Z,100554.36
2023-05-16T11:25:08.990Z,100552.86
2023-05-16T11:27:45.356Z,100552.05
2023-05-16T11:30:13.884Z,100556.45
2023-05-16T11:32:43.399Z,100555.17
2023-05-16T11:35:25.871Z,100552.89
2023-05-16T11:37:53.236Z,100550.80
2023-05-16T11:40:20.169Z,100543.81
2023-05-16T11:42:47.890Z,100545.28
2023-05-16T11:45:16.904Z,100544.80
2023-05-16T11:47:44.827Z,100551.81
2023-05-16T11:50:19.130Z,100547.64
2023-05-16T11:52:56.659Z,100545.43
2023-05-16T11:55:40.377Z,100536.23
2023-05-16T11:58:09.727Z,100537.10
2023-05-16T12:00:37.375Z,100531.24
2023-05-16T12:03:05.465Z,100526.28
2023-05-16T12:05:34.278Z,100522.86
2023-05-16T12:08:02.229Z,100528.42
2023-05-16T12:10:31.043Z,100531.23
2023-05-16T12:12:58.431Z,100529.31
2023-05-16T12:15:25.700Z,100533.64
2023-05-16T12:17:54.022Z,100532.12
2023-05-16T12:20:21.053Z,100530.52
2023-05-16T12:22:48.070Z,100529.37
2023-05-16T12:25:34.434Z,100530.48
2023-05-16T12:28:02.609Z,100536.92
2023-05-16T12:30:31.898Z,100536.85
2023-05-16T12:33:00.442Z,100539.27
2023-05-16T12:35:32.046Z,100541.57
2023-05-16T12:38:00.105Z,100540.52
2023-05-16T12:40:30.940Z,100542.35
2023-05-16T12:42:58.430Z,100545.73
2023-05-16T12:45:27.437Z,100546.24
2023-05-16T12:47:54.608Z,100540.71
2023-05-16T12:50:22.461Z,100540.64
2023-05-16T12:52:54.703Z,100535.67
2023-05-16T12:55:22.056Z,100534.52
2023-05-16T12:57:49.345Z,100531.52
2023-05-16T13:00:21.441Z,100529.58
2023-05-16T13:02:49.074Z,100527.86
2023-05-16T13:05:17.536Z,100527.50
2023-05-16T13:07:44.655Z,100527.08
2023-05-16T13:10:13.517Z,100530.02
2023-05-16T13:12:42.548Z,100533.69
2023-05-16T13:15:11.450Z,100532.76
2023-05-16T13:17:38.906Z,100534.72
2023-05-16T13:20:09.828Z,100532.08
2023-05-16T13:22:37.179Z,100529.55
2023-05-16T13:25:05.657Z,100528.54
2023-05-16T13:27:32.872Z,100530.23
2023-05-16T13:29:59.920Z,100532.61
2023-05-16T13:32:27.242Z,100530.44
2023-05-16T13:34:54.973Z,100527.94
2023-05-16T13:37:23.977Z,100521.74
2023-05-16T13:39:53.294Z,100514.02
2023-05-16T13:42:20.867Z,100514.67
2023-05-16T13:44:48.005Z,100515.39
2023-05-16T13:47:15.612Z,100514.14
2023-05-16T13:49:42.620Z,100513.30
2023-05-16T13:52:09.698Z,100517.71
2023-05-16T13:54:36.917Z,100516.84
2023-05-16T13:57:04.322Z,100515.23
2023-05-16T14:00:03.450Z,100511.51
2023-05-16T14:02:19.948Z,100519.77
2023-05-16T14:04:49.057Z,100519.05
2023-05-16T14:07:17.902Z,100519.02
2023-05-16T14:09:45.529Z,100519.95
2023-05-16T14:12:12.503Z,100517.00
2023-05-16T14:14:39.637Z,100519.84
2023-05-16T14:17:07.296Z,100516.14
2023-05-16T14:19:34.448Z,100516.21
2023-05-16T14:22:01.478Z,100519.36
2023-05-16T14:24:28.559Z,100519.77
2023-05-16T14:26:55.896Z,100519.20
2023-05-16T14:29:23.884Z,100521.81
2023-05-16T14:31:50.967Z,100522.61
2023-05-16T14:34:19.685Z,100520.02
2023-05-16T14:36:46.715Z,100522.61
2023-05-16T14:39:13.761Z,100525.81
2023-05-16T14:41:41.891Z,100522.15
2023-05-16T14:44:09.340Z,100523.25
2023-05-16T14:46:36.455Z,100522.10
2023-05-16T14:49:04.996Z,100522.14
2023-05-16T14:51:32.102Z,100524.77
2023-05-16T14:53:59.200Z,100528.35
2023-05-16T14:56:27.758Z,100525.96
2023-05-16T14:58:54.732Z,100521.48
2023-05-16T15:01:22.216Z,100521.43
2023-05-16T15:03:55.415Z,100520.80
2023-05-16T15:06:24.133Z,100519.33
2023-05-16T15:08:51.629Z,100518.48
2023-05-16T15:11:18.961Z,100517.36
2023-05-16T15:13:46.304Z,100514.42
2023-05-16T15:16:13.366Z,100510.77
2023-05-16T15:18:41.259Z,100510.45
2023-05-16T15:21:08.627Z,100513.24
2023-05-16T15:23:36.207Z,100510.96
2023-05-16T15:26:03.666Z,100512.09
2023-05-16T15:28:30.829Z,100507.57
2023-05-16T15:30:57.879Z,100506.75
2023-05-16T15:33:25.200Z,100504.13
2023-05-16T15:35:52.587Z,100504.33
2023-05-16T15:38:22.869Z,100505.27
2023-05-16T15:40:55.217Z,100507.15
2023-05-16T15:43:25.433Z,100505.40
2023-05-16T15:45:52.452Z,100501.20
2023-05-16T15:48:19.773Z,100500.77
2023-05-16T15:50:46.761Z,100498.20
2023-05-16T15:53:13.671Z,100499.29
2023-05-16T15:55:40.706Z,100503.94
2023-05-16T15:58:07.923Z,100506.79
2023-05-16T16:00:38.988Z,100505.01
2023-05-16T16:03:06.687Z,100504.77
2023-05-16T16:05:34.335Z,100504.42
2023-05-16T16:08:01.694Z,100503.83
2023-05-16T16:10:31.017Z,100504.06
2023-05-16T16:13:02.078Z,100500.33
2023-05-16T16:15:32.812Z,100500.90
2023-05-16T16:18:00.712Z,100500.77
2023-05-16T16:20:27.834Z,100504.64
2023-05-16T16:23:04.911Z,100502.48
2023-05-16T16:25:32.195Z,100503.18
2023-05-16T16:27:59.608Z,100505.23
2023-05-16T16:30:27.451Z,100503.37
2023-05-16T16:32:54.524Z,100502.67
2023-05-16T16:35:25.227Z,100502.30
2023-05-16T16:38:05.706Z,100502.58
2023-05-16T16:40:34.363Z,100503.52
2023-05-16T16:43:01.394Z,100510.33
2023-05-16T16:45:29.485Z,100508.21
2023-05-16T16:47:57.994Z,100509.59
2023-05-16T16:50:25.198Z,100512.74
2023-05-16T16:52:53.460Z,100513.16
2023-05-16T16:55:20.784Z,100513.26
2023-05-16T16:57:47.739Z,100515.13
2023-05-16T17:00:15.028Z,100511.95
2023-05-16T17:02:42.265Z,100510.70
2023-05-16T17:05:09.627Z,100509.79
2023-05-16T17:07:37.219Z,100513.08
2023-05-16T17:10:04.954Z,100511.73
2023-05-16T17:12:34.422Z,100511.59
2023-05-16T17:15:02.031Z,100514.58
2023-05-16T17:17:29.570Z,100515.55
2023-05-16T17:19:56.551Z,100517.65
2023-05-16T17:22:23.472Z,100519.61
2023-05-16T17:24:51.701Z,100516.80
2023-05-16T17:27:18.951Z,100514.95
2023-05-16T17:29:45.983Z,100510.50
2023-05-16T17:32:12.971Z,100510.03
2023-05-16T17:34:42.475Z,100509.33
2023-05-16T17:37:10.177Z,100505.83
2023-05-16T17:39:39.856Z,100508.69
2023-05-16T17:42:08.938Z,100510.58
2023-05-16T17:44:36.330Z,100511.77
2023-05-16T17:47:05.066Z,100518.33
2023-05-16T17:49:32.340Z,100520.25
2023-05-16T17:52:00.261Z,100524.98
2023-05-16T17:54:30.598Z,100527.29
2023-05-16T17:56:57.862Z,100527.96
2023-05-16T17:59:26.935Z,100529.80
2023-05-16T18:01:55.616Z,100530.81
2023-05-16T18:04:23.532Z,100534.39
2023-05-16T18:06:54.013Z,100537.52
2023-05-16T18:09:21.466Z,100538.06
2023-05-16T18:11:49.976Z,100542.66
2023-05-16T18:14:17.036Z,100538.41
2023-05-16T18:16:44.071Z,100540.57
2023-05-16T18:19:13.894Z,100540.33
2023-05-16T18:21:44.558Z,100541.44
2023-05-16T18:24:15.415Z,100542.38
2023-05-16T18:26:43.863Z,100545.45
2023-05-16T18:29:10.859Z,100545.02
2023-05-16T18:31:40.714Z,100542.81
2023-05-16T18:34:11.613Z,100545.62
2023-05-16T18:36:38.682Z,100543.64
2023-05-16T18:39:06.648Z,100548.57
2023-05-16T18:41:34.135Z,100550.20
2023-05-16T18:44:01.164Z,100557.05
2023-05-16T18:46:28.818Z,100556.94
2023-05-16T18:48:57.401Z,100563.15
2023-05-16T18:51:24.681Z,100562.11
2023-05-16T18:53:52.036Z,100561.11
2023-05-16T18:56:18.972Z,100557.25
2023-05-16T18:58:46.878Z,100555.97
2023-05-16T19:01:14.001Z,100558.39
2023-05-16T19:03:41.118Z,100556.14
2023-05-16T19:06:11.489Z,100557.45
2023-05-16T19:08:47.454Z,100554.71
2023-05-16T19:11:18.408Z,100555.21
2023-05-16T19:13:45.861Z,100555.21
2023-05-16T19:16:12.962Z,100555.96
2023-05-16T19:18:40.853Z,100552.55
2023-05-16T19:21:09.724Z,100553.52
2023-05-16T19:23:41.181Z,100554.14
2023-05-16T19:26:08.284Z,100551.64
2023-05-16T19:28:37.423Z,100549.33
2023-05-16T19:31:09.797Z,100549.33
2023-05-16T19:33:37.683Z,100549.40
2023-05-16T19:36:05.470Z,100545.81
2023-05-16T19:38:32.576Z,100544.94
2023-05-16T19:41:01.866Z,100547.34
2023-05-16T19:43:29.260Z,100548.43
2023-05-16T19:45:56.173Z,100550.52
2023-05-16T19:48:23.917Z,100551.49
2023-05-16T19:50:51.530Z,100554.48
2023-05-16T19:53:18.499Z,100555.24
2023-05-16T19:55:49.092Z,100554.99
2023-05-16T19:58:16.638Z,100555.72
2023-05-16T20:00:43.703Z,100554.71
2023-05-16T20:03:10.891Z,100550.02
2023-05-16T20:05:39.146Z,100549.27
2023-05-16T20:08:06.601Z,100551.55
2023-05-16T20:10:34.824Z,100550.65
2023-05-16T20:13:05.180Z,100551.89
2023-05-16T20:15:32.444Z,100553.72
2023-05-16T20:17:59.479Z,100552.43
2023-05-16T20:20:26.672Z,100552.55
2023-05-16T20:22:53.603Z,100554.39
2023-05-16T20:25:20.654Z,100556.05
2023-05-16T20:27:47.849Z,100555.73
2023-05-16T20:30:14.886Z,100553.83
2023-05-16T20:32:43.165Z,100554.00
2023-05-16T20:35:12.062Z,100552.52
2023-05-16T20:37:40.839Z,100551.91
2023-05-16T20:40:08.744Z,100548.54
2023-05-16T20:42:36.065Z,100546.00
2023-05-16T20:45:03.795Z,100545.13
2023-05-16T20:47:31.362Z,100545.81
2023-05-16T20:49:58.750Z,100539.41
2023-05-16T20:52:27.334Z,100537.51
2023-05-16T20:54:57.897Z,100542.65
2023-05-16T20:57:24.986Z,100542.54
2023-05-16T20:59:52.007Z,100544.55
2023-05-16T21:02:19.004Z,100541.88
2023-05-16T21:04:46.026Z,100541.95
2023-05-16T21:07:13.093Z,100542.31
2023-05-16T21:09:41.488Z,100538.97
2023-05-16T21:12:08.718Z,100538.09
2023-05-16T21:14:36.173Z,100539.71
2023-05-16T21:17:03.265Z,100538.23
2023-05-16T21:19:36.820Z,100531.85
2023-05-16T21:22:06.484Z,100535.10
2023-05-16T21:24:35.256Z,100535.02
2023-05-16T21:27:04.537Z,100535.75
2023-05-16T21:29:33.024Z,100535.06
2023-05-16T21:32:03.083Z,100536.88
2023-05-16T21:34:30.099Z,100536.48
2023-05-16T21:36:58.151Z,100535.29
2023-05-16T21:39:25.288Z,100536.13
2023-05-16T21:41:52.244Z,100535.59
2023-05-16T21:44:20.242Z,100539.10
2023-05-16T21:46:47.311Z,100535.52
2023-05-16T21:49:14.331Z,100534.69
2023-05-16T21:51:41.454Z,100535.64
2023-05-16T21:54:08.413Z,100533.39
2023-05-16T21:56:36.200Z,100538.03
2023-05-16T21:59:03.060Z,100532.25
2023-05-16T22:01:30.003Z,100531.46
2023-05-16T22:03:57.774Z,100537.96
2023-05-16T22:06:24.930Z,100538.88
2023-05-16T22:08:52.984Z,100540.06
2023-05-16T22:11:19.826Z,100538.58
2023-05-16T22:13:47.357Z,100542.02
2023-05-16T22:16:14.884Z,100539.30
2023-05-16T22:18:44.740Z,100540.44
2023-05-16T22:21:11.859Z,100538.98
2023-05-16T22:23:39.113Z,100540.13
2023-05-16T22:26:06.152Z,100543.00
2023-05-16T22:28:33.144Z,100541.75
2023-05-16T22:31:00.518Z,100541.76
2023-05-16T22:33:27.566Z,100545.50
2023-05-16T22:35:54.778Z,100549.42
2023-05-16T22:38:21.642Z,100553.38
2023-05-16T22:40:48.636Z,100549.11
2023-05-16T22:43:16.331Z,100550.13
2023-05-16T22:45:43.169Z,100552.81
2023-05-16T22:48:10.220Z,100553.11
2023-05-16T22:50:37.889Z,100553.16
2023-05-16T22:53:04.828Z,100558.14
2023-05-16T22:55:33.505Z,100558.05
2023-05-16T22:58:04.357Z,100558.05
2023-05-16T23:00:33.039Z,100558.70
2023-05-16T23:02:59.944Z,100559.55
2023-05-16T23:05:27.074Z,100559.98
2023-05-16T23:07:54.304Z,100559.33
2023-05-16T23:10:21.140Z,100560.33
2023-05-16T23:12:48.270Z,100560.30
2023-05-16T23:15:15.139Z,100561.32
2023-05-16T23:17:42.090Z,100558.98
2023-05-16T23:20:11.374Z,100558.50
2023-05-16T23:22:38.670Z,100558.33
2023-05-16T23:25:06.486Z,100557.95
2023-05-16T23:27:34.083Z,100561.91
2023-05-16T23:30:01.044Z,100558.17
2023-05-16T23:32:29.288Z,100557.27
2023-05-16T23:34:56.193Z,100559.09
2023-05-16T23:37:24.613Z,100559.35
2023-05-16T23:39:51.469Z,100559.90
2023-05-16T23:42:18.304Z,100563.21
2023-05-16T23:44:45.850Z,100558.29
2023-05-16T23:47:13.088Z,100564.44
2023-05-16T23:49:40.356Z,100561.55
2023-05-16T23:52:07.336Z,100563.04
2023-05-16T23:54:34.245Z,100561.45
2023-05-16T23:57:01.161Z,100559.48
2023-05-16T23:59:28.062Z,100560.05
